createdAt,value
2023-01-26T00:55:50.149Z,0.50
2023-01-26T00:56:51.112Z,0.50
2023-01-26T00:57:51.113Z,0.50
2023-01-26T00:58:51.099Z,0.50
2023-01-26T00:59:51.085Z,0.50
2023-01-26T01:00:51.116Z,0.50
2023-01-26T01:01:51.112Z,0.41
2023-01-26T01:02:51.059Z,0.37
2023-01-26T01:03:51.060Z,0.37
2023-01-26T01:04:51.046Z,0.37
2023-01-26T01:05:51.039Z,0.40
2023-01-26T01:06:51.028Z,0.43
2023-01-26T01:07:51.028Z,0.49
2023-01-26T01:08:51.016Z,0.51
2023-01-26T01:09:51.009Z,0.50
2023-01-26T01:10:50.995Z,0.50
2023-01-26T01:11:51.026Z,0.50
2023-01-26T01:12:50.987Z,0.50
2023-01-26T01:13:50.976Z,0.51
2023-01-26T01:14:50.964Z,0.50
2023-01-26T01:15:51.003Z,0.51
2023-01-26T01:16:50.952Z,0.50
2023-01-26T01:17:50.970Z,0.50
2023-01-26T01:18:50.926Z,0.51
2023-01-26T01:19:50.936Z,0.51
2023-01-26T01:20:50.908Z,0.50
2023-01-26T01:21:50.902Z,0.51
2023-01-26T01:22:50.890Z,0.51
2023-01-26T01:23:50.909Z,0.51
2023-01-26T01:24:50.876Z,0.51
2023-01-26T01:25:50.869Z,0.50
2023-01-26T01:26:50.857Z,0.50
2023-01-26T01:27:50.878Z,0.51
2023-01-26T01:28:50.843Z,0.50
2023-01-26T01:29:50.830Z,0.50
2023-01-26T01:30:50.860Z,0.50
2023-01-26T01:31:50.882Z,0.51
2023-01-26T01:32:50.809Z,0.50
2023-01-26T01:33:50.803Z,0.51
2023-01-26T01:34:50.792Z,0.51
2023-01-26T01:35:50.784Z,0.51
2023-01-26T01:36:50.774Z,0.51
2023-01-26T01:37:50.760Z,0.50
2023-01-26T04:32:49.236Z,0.53
2023-01-26T04:33:49.223Z,0.52
2023-01-26T04:34:49.216Z,0.52
2023-01-26T04:35:49.198Z,0.52
2023-01-26T04:36:49.189Z,0.53
2023-01-26T04:37:49.188Z,0.53
2023-01-26T04:38:49.184Z,0.54
2023-01-26T04:39:49.204Z,0.52
2023-01-26T04:40:49.163Z,0.51
2023-01-26T04:41:49.149Z,0.51
2023-01-26T04:42:49.142Z,0.51
2023-01-26T04:43:49.134Z,0.51
2023-01-26T04:44:49.127Z,0.52
2023-01-26T04:45:49.152Z,0.52
2023-01-26T04:46:49.122Z,0.51
2023-01-26T04:48:49.090Z,0.52
2023-01-26T04:49:49.092Z,0.51
2023-01-26T04:50:49.071Z,0.52
2023-01-26T04:51:49.063Z,0.51
2023-01-26T04:52:49.057Z,0.51
2023-01-26T04:53:49.047Z,0.52
2023-01-26T04:54:49.049Z,0.51
2023-01-26T04:55:49.061Z,0.52
2023-01-26T04:56:49.028Z,0.52
2023-01-26T04:57:49.028Z,0.52
2023-01-26T04:58:49.008Z,0.52
2023-01-26T04:59:48.994Z,0.52
2023-01-26T05:00:49.007Z,0.53
2023-01-26T05:01:48.977Z,0.52
2023-01-26T05:02:48.978Z,0.50
2023-01-26T05:03:49.016Z,0.52
2023-01-26T05:04:48.954Z,0.51
2023-01-26T05:05:48.945Z,0.52
2023-01-26T05:06:48.938Z,0.51
2023-01-26T05:07:48.927Z,0.52
2023-01-26T05:08:48.924Z,0.52
2023-01-26T05:09:48.914Z,0.53
2023-01-26T05:10:48.909Z,0.51
2023-01-26T05:11:48.973Z,0.52
2023-01-26T05:12:48.887Z,0.52
2023-01-26T05:13:48.870Z,0.51
2023-01-26T05:14:48.863Z,0.51
2023-01-26T05:15:48.863Z,0.51
2023-01-26T05:16:48.924Z,0.52
2023-01-26T05:17:48.846Z,0.52
2023-01-26T05:18:48.833Z,0.52
2023-01-26T05:19:48.833Z,0.53
2023-01-26T05:20:48.810Z,0.52
2023-01-26T05:21:48.807Z,0.52
2023-01-26T05:22:48.801Z,0.51
2023-01-26T05:23:48.864Z,0.52
2023-01-26T05:24:48.783Z,0.51
2023-01-26T05:25:48.775Z,0.51
2023-01-26T05:26:48.764Z,0.52
2023-01-26T05:27:48.784Z,0.51
2023-01-26T05:28:48.752Z,0.52
2023-01-26T05:29:48.737Z,0.51
2023-01-26T05:30:48.803Z,0.52
2023-01-26T05:31:48.786Z,0.52
2023-01-26T05:32:48.723Z,0.51
2023-01-26T05:33:48.706Z,0.52
2023-01-26T05:34:48.690Z,0.52
2023-01-26T05:35:48.685Z,0.52
2023-01-26T05:36:48.676Z,0.52
2023-01-26T05:37:48.682Z,0.52
2023-01-26T05:38:48.662Z,0.51
2023-01-26T05:39:48.647Z,0.51
2023-01-26T05:40:48.647Z,0.52
2023-01-26T05:41:48.645Z,0.52
2023-01-26T05:42:48.625Z,0.52
2023-01-26T05:43:48.639Z,0.51
2023-01-26T05:44:48.610Z,0.51
2023-01-26T05:45:48.721Z,0.51
2023-01-26T05:46:48.599Z,0.52
2023-01-26T05:47:48.645Z,0.52
2023-01-26T05:48:48.585Z,0.53
2023-01-26T05:49:48.578Z,0.53
2023-01-26T05:50:48.571Z,0.52
2023-01-26T05:51:48.558Z,0.50
2023-01-26T05:52:48.544Z,0.51
2023-01-26T05:53:48.541Z,0.52
2023-01-26T05:54:48.530Z,0.53
2023-01-26T05:55:48.528Z,0.53
2023-01-26T05:56:48.503Z,0.54
2023-01-26T05:57:48.491Z,0.52
2023-01-26T05:58:48.485Z,0.52
2023-01-26T05:59:48.508Z,0.52
2023-01-26T06:00:48.474Z,0.52
2023-01-26T06:01:48.466Z,0.52
2023-01-26T06:02:48.809Z,0.51
2023-01-26T06:03:48.443Z,0.51
2023-01-26T06:04:48.436Z,0.52
2023-01-26T06:05:48.425Z,0.51
2023-01-26T06:06:48.425Z,0.52
2023-01-26T06:07:48.406Z,0.52
2023-01-26T06:08:48.405Z,0.53
2023-01-26T06:09:48.391Z,0.51
2023-01-26T06:10:48.387Z,0.51
2023-01-26T06:11:48.374Z,0.50
2023-01-26T06:12:48.373Z,0.51
2023-01-26T06:13:48.363Z,0.52
2023-01-26T06:14:48.352Z,0.51
2023-01-26T06:15:48.361Z,0.52
2023-01-26T06:16:48.347Z,0.52
2023-01-26T06:17:48.909Z,0.51
2023-01-26T06:18:48.345Z,0.51
2023-01-26T06:19:48.349Z,0.52
2023-01-26T06:20:48.292Z,0.53
2023-01-26T06:21:48.289Z,0.51
2023-01-26T06:22:48.287Z,0.52
2023-01-26T06:24:48.269Z,0.51
2023-01-26T06:25:48.252Z,0.51
2023-01-26T06:26:48.315Z,0.51
2023-01-26T06:27:48.264Z,0.52
2023-01-26T06:28:48.232Z,0.51
2023-01-26T06:29:48.218Z,0.52
2023-01-26T06:30:48.323Z,0.53
2023-01-26T06:31:48.416Z,0.53
2023-01-26T06:32:48.212Z,0.53
2023-01-26T06:33:48.183Z,0.55
2023-01-26T06:34:48.173Z,0.55
2023-01-26T06:36:48.157Z,0.56
2023-01-26T06:37:48.179Z,0.57
2023-01-26T06:38:48.323Z,0.58
2023-01-26T06:39:48.188Z,0.58
2023-01-26T06:40:48.126Z,0.58
2023-01-26T06:41:48.114Z,0.59
2023-01-26T06:42:48.105Z,0.59
2023-01-26T06:43:48.326Z,0.60
2023-01-26T06:44:48.101Z,0.61
2023-01-26T06:45:48.348Z,0.61
2023-01-26T06:46:48.080Z,0.61
2023-01-26T06:47:48.101Z,0.63
2023-01-26T06:48:48.059Z,0.63
2023-01-26T06:49:48.047Z,0.64
2023-01-26T06:50:48.344Z,0.64
2023-01-26T06:52:48.046Z,0.65
2023-01-26T06:53:48.359Z,0.65
2023-01-26T07:00:51.166Z,0.72
2023-01-26T07:03:51.566Z,0.74
2023-01-26T07:04:49.005Z,0.73
2023-01-26T07:10:48.328Z,0.92
2023-01-26T07:17:48.328Z,1.07
2023-01-26T07:49:47.843Z,1.04
2023-01-26T08:04:47.384Z,1.19
2023-01-26T08:38:47.364Z,1.37
2023-01-26T09:13:49.952Z,2.27
2023-01-26T10:34:46.035Z,1.58
2023-01-26T10:36:46.037Z,1.62
2023-01-26T10:43:49.602Z,1.57
2023-01-26T10:54:45.867Z,1.50
2023-01-26T11:48:45.434Z,0.50
2023-01-26T12:11:45.441Z,2.77
2023-01-26T23:19:39.211Z,1.69
